createdAt,value
2019-04-27T00:02:18.133Z,27.37
2019-04-27T00:04:55.836Z,28.37
2019-04-27T00:07:40.675Z,30.00
2019-04-27T00:10:16.145Z,24.73
2019-04-27T00:12:50.079Z,25.93
2019-04-27T00:15:32.590Z,29.07
2019-04-27T00:18:13.987Z,29.03
2019-04-27T00:20:50.181Z,27.23
2019-04-27T00:23:25.529Z,30.70
2019-04-27T00:25:59.276Z,26.23
2019-04-27T00:28:33.366Z,28.73
2019-04-27T00:31:07.058Z,29.90
2019-04-27T00:33:40.792Z,29.13
2019-04-27T00:36:21.120Z,25.97
2019-04-27T00:39:13.848Z,31.50
2019-04-27T00:41:47.918Z,28.80
2019-04-27T00:44:21.737Z,28.53
2019-04-27T00:46:55.525Z,35.07
2019-04-27T00:49:29.282Z,31.80
2019-04-27T00:52:03.769Z,29.10
2019-04-27T00:54:37.623Z,30.70
2019-04-27T00:57:13.119Z,33.73
2019-04-27T01:00:05.082Z,31.23
2019-04-27T01:02:50.877Z,32.77
2019-04-27T01:05:26.262Z,32.97
2019-04-27T01:08:00.043Z,33.97
2019-04-27T01:10:33.937Z,35.67
2019-04-27T01:13:08.255Z,34.30
2019-04-27T01:15:43.042Z,34.57
2019-04-27T01:18:16.881Z,29.20
2019-04-27T01:20:50.872Z,33.23
2019-04-27T01:23:24.546Z,30.47
2019-04-27T01:26:02.730Z,27.73
2019-04-27T01:28:41.270Z,30.77
2019-04-27T01:31:19.209Z,29.83
2019-04-27T01:33:54.112Z,28.80
2019-04-27T01:36:29.122Z,28.10
2019-04-27T01:39:04.340Z,31.23
2019-04-27T01:41:40.807Z,29.20
2019-04-27T01:44:16.323Z,29.67
2019-04-27T01:46:50.953Z,26.37
2019-04-27T01:49:24.687Z,26.40
2019-04-27T01:51:59.579Z,23.93
2019-04-27T01:54:33.563Z,28.07
2019-04-27T01:57:07.643Z,24.50
2019-04-27T01:59:44.871Z,26.63
2019-04-27T02:02:30.291Z,27.33
2019-04-27T02:05:19.982Z,35.13
2019-04-27T02:07:53.712Z,27.40
2019-04-27T02:10:29.290Z,30.77
2019-04-27T02:13:03.591Z,29.33
2019-04-27T02:15:37.456Z,28.73
2019-04-27T02:18:11.185Z,29.33
2019-04-27T02:20:44.996Z,30.00
2019-04-27T02:23:19.257Z,24.20
2019-04-27T02:25:53.231Z,25.97
2019-04-27T02:28:31.428Z,28.23
2019-04-27T02:31:23.266Z,29.33
2019-04-27T02:34:04.251Z,28.50
2019-04-27T02:36:39.163Z,23.10
2019-04-27T02:39:13.003Z,29.93
2019-04-27T02:41:46.857Z,26.53
2019-04-27T02:44:22.224Z,23.73
2019-04-27T02:46:55.980Z,21.03
2019-04-27T02:49:30.786Z,21.07
2019-04-27T02:52:10.390Z,22.33
2019-04-27T02:54:44.366Z,24.97
2019-04-27T02:57:19.792Z,22.07
2019-04-27T02:59:53.474Z,23.40
2019-04-27T03:02:29.945Z,28.37
2019-04-27T03:05:04.972Z,35.37
2019-04-27T03:07:40.534Z,30.67
2019-04-27T03:10:14.596Z,25.83
2019-04-27T03:12:50.146Z,28.43
2019-04-27T03:15:30.593Z,27.33
2019-04-27T03:18:09.876Z,25.97
2019-04-27T03:20:50.293Z,30.17
2019-04-27T03:23:25.855Z,26.37
2019-04-27T03:26:07.392Z,25.73
2019-04-27T03:28:41.256Z,22.37
2019-04-27T03:31:15.005Z,25.17
2019-04-27T03:33:52.838Z,25.53
2019-04-27T03:36:25.833Z,28.27
2019-04-27T03:39:00.123Z,23.23
2019-04-27T03:41:33.976Z,29.80
2019-04-27T03:44:09.406Z,23.50
2019-04-27T03:46:43.430Z,22.43
2019-04-27T03:49:31.978Z,24.97
2019-04-27T03:51:56.866Z,22.97
2019-04-27T03:54:40.126Z,23.57
2019-04-27T03:57:19.899Z,22.37
2019-04-27T04:00:00.739Z,20.47
2019-04-27T04:02:34.657Z,18.87
2019-04-27T04:05:09.945Z,23.30
2019-04-27T04:07:44.045Z,17.73
2019-04-27T04:10:19.827Z,22.97
2019-04-27T04:13:01.611Z,18.37
2019-04-27T04:15:52.377Z,21.17
2019-04-27T04:18:26.791Z,24.43
2019-04-27T04:21:00.797Z,33.60
2019-04-27T04:23:34.505Z,25.70
2019-04-27T04:26:09.877Z,21.77
2019-04-27T04:28:43.911Z,25.23
2019-04-27T04:31:17.708Z,21.87
2019-04-27T04:33:51.418Z,23.67
2019-04-27T04:36:25.350Z,28.67
2019-04-27T04:39:00.417Z,22.53
2019-04-27T04:41:51.002Z,20.83
2019-04-27T04:44:35.116Z,23.13
2019-04-27T04:47:30.510Z,38.77
2019-04-27T04:50:11.102Z,27.00
2019-04-27T04:52:42.400Z,23.23
2019-04-27T04:55:16.483Z,29.47
2019-04-27T04:57:51.941Z,27.93
2019-04-27T05:00:25.746Z,28.97
2019-04-27T05:02:59.664Z,44.53
2019-04-27T05:05:33.556Z,32.17
2019-04-27T05:08:09.089Z,34.63
2019-04-27T05:10:42.940Z,33.80
2019-04-27T05:13:16.624Z,30.70
2019-04-27T05:15:50.398Z,27.97
2019-04-27T05:18:24.138Z,37.77
2019-04-27T05:21:02.166Z,35.67
2019-04-27T05:23:35.992Z,28.33
2019-04-27T05:26:09.745Z,22.70
2019-04-27T05:28:43.381Z,23.70
2019-04-27T05:31:17.124Z,29.47
2019-04-27T05:33:52.832Z,30.97
2019-04-27T05:36:26.357Z,28.50
2019-04-27T05:39:00.170Z,25.53
2019-04-27T05:41:37.518Z,33.23
2019-04-27T05:44:12.927Z,29.00
2019-04-27T05:46:59.657Z,28.70
2019-04-27T05:49:41.134Z,21.10
2019-04-27T05:52:29.422Z,31.10
2019-04-27T05:55:03.969Z,30.10
2019-04-27T05:57:39.018Z,22.30
2019-04-27T06:00:16.008Z,17.20
2019-04-27T06:02:49.892Z,23.20
2019-04-27T06:05:23.592Z,20.67
2019-04-27T06:07:58.867Z,18.23
2019-04-27T06:10:33.229Z,24.33
2019-04-27T06:13:08.449Z,26.13
2019-04-27T06:15:42.845Z,42.10
2019-04-27T06:18:16.667Z,41.13
2019-04-27T06:20:55.534Z,38.30
2019-04-27T06:23:25.779Z,32.23
2019-04-27T06:26:01.866Z,26.48
2019-04-27T06:28:34.929Z,30.40
2019-04-27T06:31:08.861Z,28.32
2019-04-27T06:33:42.635Z,31.35
2019-04-27T06:36:16.476Z,31.60
2019-04-27T06:38:50.917Z,31.00
2019-04-27T06:41:24.591Z,32.08
2019-04-27T06:43:59.182Z,25.82
2019-04-27T06:46:33.101Z,26.52
2019-04-27T06:49:09.054Z,26.95
2019-04-27T06:51:43.725Z,34.27
2019-04-27T06:54:17.585Z,32.93
2019-04-27T06:56:51.467Z,29.95
2019-04-27T06:59:25.407Z,22.45
2019-04-27T07:02:00.820Z,29.37
2019-04-27T07:04:34.447Z,25.50
2019-04-27T07:07:09.798Z,22.90
2019-04-27T07:09:44.855Z,21.80
2019-04-27T07:12:20.272Z,23.45
2019-04-27T07:14:55.108Z,20.80
2019-04-27T07:17:30.173Z,17.27
2019-04-27T07:20:05.477Z,23.07
2019-04-27T07:22:39.935Z,22.82
2019-04-27T07:25:13.599Z,20.85
2019-04-27T07:27:49.222Z,23.55
2019-04-27T07:30:22.829Z,23.95
2019-04-27T07:32:58.842Z,20.77
2019-04-27T07:35:32.315Z,25.30
2019-04-27T07:38:06.253Z,19.62
2019-04-27T07:40:41.788Z,23.07
2019-04-27T07:43:17.021Z,24.23
2019-04-27T07:45:50.641Z,26.52
2019-04-27T07:48:25.345Z,25.00
2019-04-27T07:50:59.113Z,25.85
2019-04-27T07:53:32.869Z,29.42
2019-04-27T07:56:06.718Z,26.17
2019-04-27T07:58:40.363Z,22.32
2019-04-27T08:01:14.047Z,27.25
2019-04-27T08:03:49.073Z,27.40
2019-04-27T08:06:23.031Z,25.57
2019-04-27T08:08:56.593Z,33.15
2019-04-27T08:11:30.709Z,29.80
2019-04-27T08:14:04.929Z,24.35
2019-04-27T08:16:38.929Z,22.35
2019-04-27T08:19:12.776Z,27.58
2019-04-27T08:21:46.633Z,25.77
2019-04-27T08:24:20.532Z,31.80
2019-04-27T08:26:55.921Z,28.50
2019-04-27T08:29:42.945Z,22.55
2019-04-27T08:32:19.603Z,26.27
2019-04-27T08:34:53.627Z,25.10
2019-04-27T08:37:28.676Z,30.00
2019-04-27T08:40:02.576Z,26.57
2019-04-27T08:42:36.834Z,24.00
2019-04-27T08:45:11.288Z,22.07
2019-04-27T08:47:45.091Z,21.52
2019-04-27T08:50:19.150Z,27.40
2019-04-27T08:52:53.123Z,20.12
2019-04-27T08:55:29.459Z,27.10
2019-04-27T08:58:03.391Z,23.12
2019-04-27T09:00:38.973Z,30.05
2019-04-27T09:03:12.479Z,27.90
2019-04-27T09:05:46.397Z,24.85
2019-04-27T09:08:21.639Z,25.48
2019-04-27T09:11:03.010Z,24.80
2019-04-27T09:13:39.357Z,25.55
2019-04-27T09:16:28.849Z,24.85
2019-04-27T09:19:08.809Z,44.48
2019-04-27T09:22:12.230Z,27.98
2019-04-27T09:24:36.000Z,26.73
2019-04-27T09:27:09.882Z,34.78
2019-04-27T09:29:43.616Z,33.53
2019-04-27T09:32:19.069Z,33.00
2019-04-27T09:34:52.737Z,41.30
2019-04-27T09:37:27.443Z,30.27
2019-04-27T09:40:01.370Z,32.70
2019-04-27T09:42:36.279Z,29.20
2019-04-27T09:45:10.781Z,30.40
2019-04-27T09:47:46.673Z,28.13
2019-04-27T09:50:20.339Z,26.25
2019-04-27T09:52:55.679Z,31.52
2019-04-27T09:55:29.587Z,37.97
2019-04-27T09:58:03.449Z,30.47
2019-04-27T10:00:37.661Z,29.95
2019-04-27T10:03:11.516Z,29.87
2019-04-27T10:05:45.975Z,31.25
2019-04-27T10:08:20.692Z,28.77
2019-04-27T10:10:54.507Z,33.30
2019-04-27T10:13:28.175Z,30.10
2019-04-27T10:16:02.747Z,29.67
2019-04-27T10:18:36.831Z,31.73
2019-04-27T10:21:10.722Z,30.20
2019-04-27T10:23:44.329Z,35.50
2019-04-27T10:26:17.954Z,30.40
2019-04-27T10:28:51.684Z,29.40
2019-04-27T10:31:26.372Z,32.40
2019-04-27T10:34:00.177Z,36.42
2019-04-27T10:36:39.673Z,37.70
2019-04-27T10:39:13.862Z,29.30
2019-04-27T10:41:47.615Z,34.00
2019-04-27T10:44:21.526Z,28.15
2019-04-27T10:46:55.396Z,39.33
2019-04-27T10:49:30.995Z,36.85
2019-04-27T10:52:05.874Z,32.55
2019-04-27T10:54:39.879Z,29.80
2019-04-27T10:57:13.688Z,29.80
2019-04-27T10:59:47.518Z,31.90
2019-04-27T11:02:21.196Z,30.70
2019-04-27T11:04:59.332Z,31.70
2019-04-27T11:07:36.264Z,34.53
2019-04-27T11:10:10.856Z,33.37
2019-04-27T11:12:45.811Z,28.23
2019-04-27T11:15:22.232Z,28.17
2019-04-27T11:17:56.300Z,29.13
2019-04-27T11:20:29.994Z,35.57
2019-04-27T11:23:09.168Z,27.98
2019-04-27T11:25:39.234Z,32.33
2019-04-27T11:28:12.975Z,33.83
2019-04-27T11:30:46.760Z,30.00
2019-04-27T11:33:20.561Z,36.07
2019-04-27T11:35:58.677Z,35.25
2019-04-27T11:38:32.327Z,33.38
2019-04-27T11:41:07.571Z,28.07
2019-04-27T11:43:41.548Z,23.10
2019-04-27T11:46:16.390Z,27.77
2019-04-27T11:48:50.384Z,33.28
2019-04-27T11:51:24.228Z,30.63
2019-04-27T11:53:58.024Z,37.85
2019-04-27T11:56:31.826Z,37.85
2019-04-27T11:59:07.020Z,32.48
2019-04-27T12:01:40.959Z,31.80
2019-04-27T12:04:16.114Z,37.58
2019-04-27T12:06:50.091Z,32.53
2019-04-27T12:09:23.807Z,38.30
2019-04-27T12:12:12.609Z,31.07
2019-04-27T12:14:32.867Z,31.12
2019-04-27T12:17:06.958Z,32.98
2019-04-27T12:19:40.630Z,33.35
2019-04-27T12:22:14.322Z,31.93
2019-04-27T12:24:48.063Z,30.80
2019-04-27T12:27:29.474Z,31.85
2019-04-27T12:30:22.230Z,25.37
2019-04-27T12:32:56.076Z,27.93
2019-04-27T12:35:29.798Z,27.42
2019-04-27T12:38:03.531Z,25.52
2019-04-27T12:40:37.907Z,30.20
2019-04-27T12:43:11.540Z,27.22
2019-04-27T12:45:46.362Z,28.07
2019-04-27T12:48:20.302Z,23.07
2019-04-27T12:50:54.117Z,26.35
2019-04-27T12:53:29.521Z,24.43
2019-04-27T12:56:06.617Z,27.90
2019-04-27T12:58:42.451Z,29.00
2019-04-27T13:01:26.982Z,26.50
2019-04-27T13:04:00.911Z,27.35
2019-04-27T13:06:35.825Z,31.57
2019-04-27T13:09:10.015Z,28.87
2019-04-27T13:11:45.802Z,31.00
2019-04-27T13:14:19.466Z,27.37
2019-04-27T13:16:53.425Z,27.33
2019-04-27T13:19:27.237Z,23.43
2019-04-27T13:22:01.042Z,24.43
2019-04-27T13:24:35.724Z,23.73
2019-04-27T13:27:09.532Z,25.17
2019-04-27T13:29:43.376Z,27.07
2019-04-27T13:32:17.531Z,25.20
2019-04-27T13:34:51.644Z,30.33
2019-04-27T13:37:36.608Z,24.60
2019-04-27T13:40:12.736Z,30.17
2019-04-27T13:43:00.179Z,21.00
2019-04-27T13:45:51.810Z,27.30
2019-04-27T13:48:36.514Z,25.17
2019-04-27T13:51:28.068Z,24.30
2019-04-27T13:54:14.123Z,22.90
2019-04-27T13:56:37.324Z,28.53
2019-04-27T13:59:12.954Z,26.73
2019-04-27T14:01:46.805Z,21.97
2019-04-27T14:04:20.481Z,23.93
2019-04-27T14:06:54.291Z,26.40
2019-04-27T14:09:28.086Z,25.13
2019-04-27T14:12:03.532Z,23.17
2019-04-27T14:14:39.009Z,26.23
2019-04-27T14:17:13.190Z,23.10
2019-04-27T14:19:48.204Z,20.37
2019-04-27T14:22:22.029Z,22.47
2019-04-27T14:24:55.733Z,17.93
2019-04-27T14:27:31.073Z,19.40
2019-04-27T14:30:09.171Z,23.43
2019-04-27T14:32:42.953Z,19.27
2019-04-27T14:35:18.138Z,22.80
2019-04-27T14:37:52.162Z,20.53
2019-04-27T14:40:25.982Z,21.80
2019-04-27T14:42:59.752Z,17.23
2019-04-27T14:45:33.475Z,26.10
2019-04-27T14:48:08.250Z,20.93
2019-04-27T14:50:42.199Z,19.43
2019-04-27T14:53:15.991Z,20.63
2019-04-27T14:55:49.730Z,19.43
2019-04-27T14:58:23.431Z,23.37
2019-04-27T15:00:58.555Z,22.60
2019-04-27T15:03:32.481Z,21.80
2019-04-27T15:06:06.365Z,22.30
2019-04-27T15:08:42.592Z,18.70
2019-04-27T15:11:19.212Z,18.53
2019-04-27T15:13:53.204Z,16.43
2019-04-27T15:16:26.916Z,22.63
2019-04-27T15:19:02.516Z,18.33
2019-04-27T15:21:40.758Z,22.17
2019-04-27T15:24:13.637Z,25.00
2019-04-27T15:26:47.821Z,24.33
2019-04-27T15:29:25.179Z,20.17
2019-04-27T15:32:04.117Z,20.93
2019-04-27T15:35:00.559Z,21.60
2019-04-27T15:37:39.228Z,20.87
2019-04-27T15:40:28.772Z,19.53
2019-04-27T15:43:04.178Z,19.17
2019-04-27T15:45:38.936Z,19.00
2019-04-27T15:48:12.916Z,21.70
2019-04-27T15:50:46.811Z,21.63
2019-04-27T15:53:21.129Z,18.77
2019-04-27T15:55:58.357Z,17.40
2019-04-27T15:58:30.381Z,21.70
2019-04-27T16:01:09.887Z,16.80
2019-04-27T16:03:45.121Z,17.10
2019-04-27T16:06:19.504Z,19.07
2019-04-27T16:08:53.397Z,24.33
2019-04-27T16:11:27.217Z,34.23
2019-04-27T16:14:02.977Z,17.73
2019-04-27T16:16:38.235Z,18.33
2019-04-27T16:19:11.887Z,19.53
2019-04-27T16:21:47.765Z,20.17
2019-04-27T16:24:21.491Z,25.13
2019-04-27T16:26:56.196Z,18.90
2019-04-27T16:29:31.606Z,20.53
2019-04-27T16:32:09.663Z,22.57
2019-04-27T16:34:41.724Z,28.50
2019-04-27T16:37:18.896Z,22.90
2019-04-27T16:39:52.789Z,20.77
2019-04-27T16:42:28.332Z,21.37
2019-04-27T16:45:02.254Z,21.53
2019-04-27T16:47:35.951Z,23.07
2019-04-27T16:50:10.605Z,23.17
2019-04-27T16:52:44.330Z,26.77
2019-04-27T16:55:19.942Z,21.33
2019-04-27T16:57:54.223Z,22.63
2019-04-27T17:00:30.227Z,24.30
2019-04-27T17:03:06.550Z,25.60
2019-04-27T17:05:39.419Z,28.50
2019-04-27T17:08:21.585Z,21.33
2019-04-27T17:10:49.234Z,40.43
2019-04-27T17:13:23.444Z,27.00
2019-04-27T17:16:04.770Z,26.90
2019-04-27T17:18:40.026Z,23.70
2019-04-27T17:21:18.967Z,25.30
2019-04-27T17:23:49.233Z,26.63
2019-04-27T17:26:24.099Z,31.70
2019-04-27T17:28:59.620Z,27.13
2019-04-27T17:31:35.066Z,27.30
2019-04-27T17:34:09.274Z,26.13
2019-04-27T17:36:43.122Z,25.63
2019-04-27T17:39:19.278Z,28.07
2019-04-27T17:41:52.864Z,23.87
2019-04-27T17:44:28.675Z,22.97
2019-04-27T17:47:02.261Z,23.97
2019-04-27T17:49:35.863Z,22.10
2019-04-27T17:52:13.052Z,24.87
2019-04-27T17:54:47.510Z,23.87
2019-04-27T17:57:22.242Z,18.57
2019-04-27T18:00:00.169Z,19.63
2019-04-27T18:02:33.699Z,21.30
2019-04-27T18:05:09.516Z,21.50
2019-04-27T18:07:44.380Z,20.90
2019-04-27T18:10:23.227Z,15.70
2019-04-27T18:12:53.665Z,19.00
2019-04-27T18:15:28.727Z,21.87
2019-04-27T18:18:22.927Z,16.73
2019-04-27T18:20:55.303Z,17.83
2019-04-27T18:23:39.814Z,25.75
2019-04-27T18:26:23.880Z,16.70
2019-04-27T18:29:00.053Z,30.67
2019-04-27T18:31:33.381Z,19.20
2019-04-27T18:34:08.612Z,15.70
2019-04-27T18:36:43.867Z,16.13
2019-04-27T18:39:18.253Z,17.03
2019-04-27T18:41:54.286Z,15.13
2019-04-27T18:44:30.568Z,12.70
2019-04-27T18:47:03.548Z,21.10
2019-04-27T18:50:07.555Z,12.73
2019-04-27T18:52:47.486Z,14.00
2019-04-27T18:55:20.642Z,14.87
2019-04-27T18:57:54.506Z,12.07
2019-04-27T19:00:29.497Z,14.67
2019-04-27T19:03:05.134Z,11.20
2019-04-27T19:05:40.520Z,11.47
2019-04-27T19:08:14.417Z,15.77
2019-04-27T19:10:48.348Z,12.87
2019-04-27T19:13:25.660Z,13.20
2019-04-27T19:15:59.885Z,11.47
2019-04-27T19:18:33.821Z,15.50
2019-04-27T19:21:08.771Z,12.30
2019-04-27T19:23:42.535Z,12.70
2019-04-27T19:26:29.976Z,13.20
2019-04-27T19:29:08.671Z,12.43
2019-04-27T19:31:44.056Z,14.33
2019-04-27T19:34:18.153Z,12.90
2019-04-27T19:36:51.989Z,13.03
2019-04-27T19:39:28.583Z,13.33
2019-04-27T19:42:03.913Z,12.30
2019-04-27T19:44:38.906Z,13.27
2019-04-27T19:47:13.752Z,15.57
2019-04-27T19:49:47.451Z,13.70
2019-04-27T19:52:22.647Z,14.73
2019-04-27T19:54:56.703Z,12.20
2019-04-27T19:57:38.157Z,12.77
2019-04-27T20:00:10.245Z,12.87
2019-04-27T20:02:44.630Z,11.43
2019-04-27T20:05:18.797Z,13.13
2019-04-27T20:07:52.967Z,13.87
2019-04-27T20:10:26.804Z,12.80
2019-04-27T20:13:00.894Z,12.70
2019-04-27T20:15:34.819Z,12.83
2019-04-27T20:18:08.517Z,13.93
2019-04-27T20:20:45.355Z,13.57
2019-04-27T20:23:22.279Z,12.07
2019-04-27T20:25:54.584Z,16.77
2019-04-27T20:28:28.389Z,18.73
2019-04-27T20:31:02.836Z,15.03
2019-04-27T20:33:37.113Z,15.00
2019-04-27T20:36:11.252Z,11.67
2019-04-27T20:38:45.014Z,13.30
2019-04-27T20:41:18.707Z,13.77
2019-04-27T20:43:52.534Z,15.30
2019-04-27T20:46:27.870Z,12.23
2019-04-27T20:49:03.216Z,13.20
2019-04-27T20:51:54.964Z,16.23
2019-04-27T20:54:30.593Z,15.63
2019-04-27T20:57:04.853Z,15.07
2019-04-27T20:59:38.808Z,13.80
2019-04-27T21:02:32.138Z,16.23
2019-04-27T21:05:26.595Z,16.20
2019-04-27T21:08:01.904Z,18.27
2019-04-27T21:10:35.742Z,19.57
2019-04-27T21:13:11.200Z,16.53
2019-04-27T21:15:45.398Z,17.53
2019-04-27T21:18:19.216Z,15.17
2019-04-27T21:20:52.942Z,16.30
2019-04-27T21:23:26.823Z,14.43
2019-04-27T21:26:02.149Z,14.60
2019-04-27T21:28:35.764Z,14.83
2019-04-27T21:31:12.459Z,17.33
2019-04-27T21:33:45.151Z,14.13
2019-04-27T21:36:18.893Z,15.20
2019-04-27T21:38:52.710Z,14.60
2019-04-27T21:41:26.457Z,12.00
2019-04-27T21:44:01.415Z,13.33
2019-04-27T21:46:36.686Z,13.67
2019-04-27T21:49:11.145Z,12.40
2019-04-27T21:51:50.987Z,12.77
2019-04-27T21:54:26.748Z,12.67
2019-04-27T21:57:00.407Z,13.43
2019-04-27T21:59:34.721Z,15.53
2019-04-27T22:02:11.980Z,12.10
2019-04-27T22:18:35.019Z,14.10
2019-04-27T22:21:08.891Z,12.47
2019-04-27T22:23:47.028Z,13.33
2019-04-27T22:26:21.341Z,12.27
2019-04-27T22:28:55.076Z,16.03
2019-04-27T22:31:28.731Z,11.67
2019-04-27T22:34:02.328Z,11.93
2019-04-27T22:36:35.930Z,13.13
2019-04-27T22:39:14.235Z,12.83
2019-04-27T22:41:55.753Z,14.60
2019-04-27T22:44:31.692Z,11.87
2019-04-27T22:47:05.574Z,13.93
2019-04-27T22:49:39.193Z,14.30
2019-04-27T22:52:12.857Z,11.60
2019-04-27T22:54:46.567Z,12.20
2019-04-27T22:57:23.334Z,12.20
2019-04-27T22:59:58.744Z,12.43
2019-04-27T23:02:33.959Z,12.77
2019-04-27T23:05:08.313Z,16.53
2019-04-27T23:07:41.970Z,12.60
2019-04-27T23:10:15.779Z,10.87
2019-04-27T23:12:50.992Z,12.27
2019-04-27T23:15:26.395Z,11.80
2019-04-27T23:17:59.968Z,9.80
2019-04-27T23:20:33.679Z,11.00
2019-04-27T23:23:07.270Z,9.43
2019-04-27T23:25:42.682Z,10.07
2019-04-27T23:28:16.379Z,12.83
2019-04-27T23:30:54.685Z,12.00
2019-04-27T23:33:28.243Z,9.97
2019-04-27T23:36:01.853Z,10.50
2019-04-27T23:38:35.459Z,11.87
2019-04-27T23:41:09.150Z,9.70
2019-04-27T23:43:42.741Z,9.83
2019-04-27T23:46:16.366Z,7.63
2019-04-27T23:48:52.066Z,9.20
2019-04-27T23:51:43.322Z,9.80
2019-04-27T23:54:16.992Z,11.63
2019-04-27T23:56:51.889Z,10.80
2019-04-27T23:59:25.591Z,13.43
